sensor_id;sensor_type;location;lat;lon;timestamp;P1;durP1;ratioP1;P2;durP2;ratioP2
9597;SDS011;4837;50.890;4.724;2023-07-30T00:00:22;8.82;;;2.80;;
9597;SDS011;4837;50.890;4.724;2023-07-30T00:02:48;7.38;;;3.00;;
9597;SDS011;4837;50.890;4.724;2023-07-30T00:05:17;6.03;;;2.47;;
9597;SDS011;4837;50.890;4.724;2023-07-30T00:07:43;8.98;;;2.70;;
9597;SDS011;4837;50.890;4.724;2023-07-30T00:10:09;7.28;;;2.75;;
9597;SDS011;4837;50.890;4.724;2023-07-30T00:12:35;6.75;;;2.55;;
9597;SDS011;4837;50.890;4.724;2023-07-30T00:15:02;6.00;;;2.55;;
9597;SDS011;4837;50.890;4.724;2023-07-30T00:17:28;5.50;;;2.50;;
9597;SDS011;4837;50.890;4.724;2023-07-30T00:19:54;6.78;;;2.88;;
9597;SDS011;4837;50.890;4.724;2023-07-30T00:22:20;6.65;;;2.78;;
9597;SDS011;4837;50.890;4.724;2023-07-30T00:24:46;5.25;;;2.70;;
9597;SDS011;4837;50.890;4.724;2023-07-30T00:27:12;6.32;;;2.63;;
9597;SDS011;4837;50.890;4.724;2023-07-30T00:29:38;6.28;;;2.50;;
9597;SDS011;4837;50.890;4.724;2023-07-30T00:32:05;5.55;;;2.90;;
9597;SDS011;4837;50.890;4.724;2023-07-30T00:34:31;9.63;;;3.15;;
9597;SDS011;4837;50.890;4.724;2023-07-30T00:36:57;6.45;;;2.88;;
9597;SDS011;4837;50.890;4.724;2023-07-30T00:39:23;5.38;;;3.00;;
9597;SDS011;4837;50.890;4.724;2023-07-30T00:41:50;8.90;;;2.90;;
9597;SDS011;4837;50.890;4.724;2023-07-30T00:44:16;7.78;;;2.83;;
9597;SDS011;4837;50.890;4.724;2023-07-30T00:46:42;8.05;;;3.17;;
9597;SDS011;4837;50.890;4.724;2023-07-30T00:49:08;8.07;;;2.90;;
9597;SDS011;4837;50.890;4.724;2023-07-30T00:51:35;8.00;;;3.20;;
9597;SDS011;4837;50.890;4.724;2023-07-30T00:54:01;6.55;;;2.80;;
9597;SDS011;4837;50.890;4.724;2023-07-30T00:56:27;9.10;;;2.63;;
9597;SDS011;4837;50.890;4.724;2023-07-30T00:58:54;8.85;;;3.00;;
9597;SDS011;4837;50.890;4.724;2023-07-30T01:01:20;11.60;;;2.97;;
9597;SDS011;4837;50.890;4.724;2023-07-30T01:03:46;9.30;;;3.00;;
9597;SDS011;4837;50.890;4.724;2023-07-30T01:06:13;9.57;;;2.90;;
9597;SDS011;4837;50.890;4.724;2023-07-30T01:08:40;7.88;;;3.00;;
9597;SDS011;4837;50.890;4.724;2023-07-30T01:11:06;8.52;;;2.65;;
9597;SDS011;4837;50.890;4.724;2023-07-30T01:13:33;11.52;;;2.83;;
9597;SDS011;4837;50.890;4.724;2023-07-30T01:15:59;10.25;;;3.13;;
9597;SDS011;4837;50.890;4.724;2023-07-30T01:18:25;9.63;;;2.80;;
9597;SDS011;4837;50.890;4.724;2023-07-30T01:20:58;7.20;;;2.75;;
9597;SDS011;4837;50.890;4.724;2023-07-30T01:23:25;10.02;;;2.83;;
9597;SDS011;4837;50.890;4.724;2023-07-30T01:26:05;8.93;;;3.28;;
9597;SDS011;4837;50.890;4.724;2023-07-30T01:28:36;9.30;;;2.60;;
9597;SDS011;4837;50.890;4.724;2023-07-30T01:31:03;7.25;;;2.42;;
9597;SDS011;4837;50.890;4.724;2023-07-30T01:33:30;6.45;;;2.70;;
9597;SDS011;4837;50.890;4.724;2023-07-30T01:35:57;7.65;;;2.80;;
9597;SDS011;4837;50.890;4.724;2023-07-30T01:38:25;7.85;;;2.85;;
9597;SDS011;4837;50.890;4.724;2023-07-30T01:40:51;6.97;;;2.80;;
9597;SDS011;4837;50.890;4.724;2023-07-30T01:43:17;9.23;;;2.78;;
9597;SDS011;4837;50.890;4.724;2023-07-30T01:45:43;7.63;;;2.67;;
9597;SDS011;4837;50.890;4.724;2023-07-30T01:48:10;5.88;;;2.45;;
9597;SDS011;4837;50.890;4.724;2023-07-30T01:50:36;10.82;;;3.05;;
9597;SDS011;4837;50.890;4.724;2023-07-30T01:53:02;8.27;;;3.03;;
9597;SDS011;4837;50.890;4.724;2023-07-30T01:55:28;10.57;;;2.83;;
9597;SDS011;4837;50.890;4.724;2023-07-30T01:57:54;8.52;;;3.03;;
9597;SDS011;4837;50.890;4.724;2023-07-30T02:00:20;7.53;;;2.85;;
9597;SDS011;4837;50.890;4.724;2023-07-30T02:02:46;10.55;;;3.08;;
9597;SDS011;4837;50.890;4.724;2023-07-30T02:05:13;6.80;;;2.70;;
9597;SDS011;4837;50.890;4.724;2023-07-30T02:07:39;7.82;;;2.63;;
9597;SDS011;4837;50.890;4.724;2023-07-30T02:10:05;10.73;;;2.90;;
9597;SDS011;4837;50.890;4.724;2023-07-30T02:12:31;10.55;;;2.88;;
9597;SDS011;4837;50.890;4.724;2023-07-30T02:14:57;10.70;;;3.45;;
9597;SDS011;4837;50.890;4.724;2023-07-30T02:17:23;11.02;;;3.15;;
9597;SDS011;4837;50.890;4.724;2023-07-30T02:19:50;10.02;;;2.97;;
9597;SDS011;4837;50.890;4.724;2023-07-30T02:22:16;11.27;;;2.65;;
9597;SDS011;4837;50.890;4.724;2023-07-30T02:24:42;10.00;;;2.72;;
9597;SDS011;4837;50.890;4.724;2023-07-30T02:27:08;5.60;;;2.63;;
9597;SDS011;4837;50.890;4.724;2023-07-30T02:29:34;9.98;;;2.40;;
9597;SDS011;4837;50.890;4.724;2023-07-30T02:32:01;8.93;;;2.80;;
9597;SDS011;4837;50.890;4.724;2023-07-30T02:34:27;8.75;;;2.72;;
9597;SDS011;4837;50.890;4.724;2023-07-30T02:36:53;8.32;;;2.63;;
9597;SDS011;4837;50.890;4.724;2023-07-30T02:39:19;10.18;;;2.88;;
9597;SDS011;4837;50.890;4.724;2023-07-30T02:41:45;12.85;;;2.78;;
9597;SDS011;4837;50.890;4.724;2023-07-30T02:44:11;7.47;;;2.47;;
9597;SDS011;4837;50.890;4.724;2023-07-30T02:46:37;8.57;;;2.63;;
9597;SDS011;4837;50.890;4.724;2023-07-30T02:49:03;10.45;;;2.83;;
9597;SDS011;4837;50.890;4.724;2023-07-30T02:51:30;9.10;;;2.63;;
9597;SDS011;4837;50.890;4.724;2023-07-30T02:54:00;6.75;;;2.67;;
9597;SDS011;4837;50.890;4.724;2023-07-30T02:56:29;9.25;;;3.08;;
9597;SDS011;4837;50.890;4.724;2023-07-30T02:58:55;9.05;;;3.00;;
9597;SDS011;4837;50.890;4.724;2023-07-30T03:01:21;8.88;;;2.58;;
9597;SDS011;4837;50.890;4.724;2023-07-30T03:03:47;6.35;;;2.40;;
9597;SDS011;4837;50.890;4.724;2023-07-30T03:06:13;7.70;;;2.85;;
9597;SDS011;4837;50.890;4.724;2023-07-30T03:08:42;8.82;;;2.78;;
9597;SDS011;4837;50.890;4.724;2023-07-30T03:11:08;10.30;;;2.75;;
9597;SDS011;4837;50.890;4.724;2023-07-30T03:13:34;11.65;;;2.63;;
9597;SDS011;4837;50.890;4.724;2023-07-30T03:16:00;10.63;;;2.58;;
9597;SDS011;4837;50.890;4.724;2023-07-30T03:18:26;10.20;;;3.13;;
9597;SDS011;4837;50.890;4.724;2023-07-30T03:20:57;10.75;;;3.10;;
9597;SDS011;4837;50.890;4.724;2023-07-30T03:23:24;8.20;;;2.50;;
9597;SDS011;4837;50.890;4.724;2023-07-30T03:25:50;13.50;;;3.10;;
9597;SDS011;4837;50.890;4.724;2023-07-30T03:28:16;9.45;;;3.28;;
9597;SDS011;4837;50.890;4.724;2023-07-30T03:30:42;7.72;;;2.83;;
9597;SDS011;4837;50.890;4.724;2023-07-30T03:33:08;9.90;;;3.13;;
9597;SDS011;4837;50.890;4.724;2023-07-30T03:35:35;9.60;;;2.85;;
9597;SDS011;4837;50.890;4.724;2023-07-30T03:38:01;11.32;;;2.70;;
9597;SDS011;4837;50.890;4.724;2023-07-30T03:40:27;11.05;;;2.78;;
9597;SDS011;4837;50.890;4.724;2023-07-30T03:42:54;11.00;;;2.60;;
9597;SDS011;4837;50.890;4.724;2023-07-30T03:45:20;10.05;;;2.22;;
9597;SDS011;4837;50.890;4.724;2023-07-30T03:47:46;10.07;;;2.55;;
9597;SDS011;4837;50.890;4.724;2023-07-30T03:50:13;11.50;;;2.67;;
9597;SDS011;4837;50.890;4.724;2023-07-30T03:52:39;11.00;;;2.70;;
9597;SDS011;4837;50.890;4.724;2023-07-30T03:55:05;11.85;;;2.70;;
9597;SDS011;4837;50.890;4.724;2023-07-30T03:57:31;8.40;;;2.10;;
9597;SDS011;4837;50.890;4.724;2023-07-30T03:59:57;11.38;;;2.85;;
9597;SDS011;4837;50.890;4.724;2023-07-30T04:02:23;6.80;;;2.67;;
9597;SDS011;4837;50.890;4.724;2023-07-30T04:04:50;9.30;;;2.50;;
9597;SDS011;4837;50.890;4.724;2023-07-30T04:07:16;10.68;;;2.88;;
9597;SDS011;4837;50.890;4.724;2023-07-30T04:09:42;7.95;;;2.50;;
9597;SDS011;4837;50.890;4.724;2023-07-30T04:12:08;11.70;;;2.70;;
9597;SDS011;4837;50.890;4.724;2023-07-30T04:14:34;9.77;;;2.45;;
9597;SDS011;4837;50.890;4.724;2023-07-30T04:17:00;10.38;;;2.78;;
9597;SDS011;4837;50.890;4.724;2023-07-30T04:19:26;7.72;;;2.40;;
9597;SDS011;4837;50.890;4.724;2023-07-30T04:21:53;7.50;;;2.55;;
9597;SDS011;4837;50.890;4.724;2023-07-30T04:24:19;12.73;;;2.75;;
9597;SDS011;4837;50.890;4.724;2023-07-30T04:26:45;9.32;;;2.88;;
9597;SDS011;4837;50.890;4.724;2023-07-30T04:29:11;9.63;;;2.65;;
9597;SDS011;4837;50.890;4.724;2023-07-30T04:31:39;10.65;;;2.60;;
9597;SDS011;4837;50.890;4.724;2023-07-30T04:34:05;8.43;;;2.50;;
9597;SDS011;4837;50.890;4.724;2023-07-30T04:36:31;14.82;;;2.50;;
9597;SDS011;4837;50.890;4.724;2023-07-30T04:38:57;10.80;;;2.70;;
9597;SDS011;4837;50.890;4.724;2023-07-30T04:41:24;10.50;;;2.60;;
9597;SDS011;4837;50.890;4.724;2023-07-30T04:43:50;14.13;;;3.15;;
9597;SDS011;4837;50.890;4.724;2023-07-30T04:46:16;11.32;;;2.35;;
9597;SDS011;4837;50.890;4.724;2023-07-30T04:48:42;9.15;;;2.55;;
9597;SDS011;4837;50.890;4.724;2023-07-30T04:51:08;11.02;;;2.90;;
9597;SDS011;4837;50.890;4.724;2023-07-30T04:53:34;12.38;;;3.30;;
9597;SDS011;4837;50.890;4.724;2023-07-30T04:56:00;9.85;;;2.35;;
9597;SDS011;4837;50.890;4.724;2023-07-30T04:58:26;11.23;;;3.45;;
9597;SDS011;4837;50.890;4.724;2023-07-30T05:00:52;11.18;;;2.85;;
9597;SDS011;4837;50.890;4.724;2023-07-30T05:03:18;11.73;;;2.60;;
9597;SDS011;4837;50.890;4.724;2023-07-30T05:05:44;12.40;;;2.55;;
9597;SDS011;4837;50.890;4.724;2023-07-30T05:08:10;9.80;;;2.65;;
9597;SDS011;4837;50.890;4.724;2023-07-30T05:10:36;12.15;;;2.90;;
9597;SDS011;4837;50.890;4.724;2023-07-30T05:13:03;12.75;;;2.65;;
9597;SDS011;4837;50.890;4.724;2023-07-30T05:15:29;11.13;;;2.50;;
9597;SDS011;4837;50.890;4.724;2023-07-30T05:17:55;11.07;;;3.10;;
9597;SDS011;4837;50.890;4.724;2023-07-30T05:20:21;13.32;;;2.97;;
9597;SDS011;4837;50.890;4.724;2023-07-30T05:22:47;8.93;;;3.05;;
9597;SDS011;4837;50.890;4.724;2023-07-30T05:25:13;12.57;;;2.88;;
9597;SDS011;4837;50.890;4.724;2023-07-30T05:27:40;11.45;;;3.13;;
9597;SDS011;4837;50.890;4.724;2023-07-30T05:30:06;12.45;;;2.67;;
9597;SDS011;4837;50.890;4.724;2023-07-30T05:32:32;15.15;;;2.97;;
9597;SDS011;4837;50.890;4.724;2023-07-30T05:34:58;11.35;;;3.08;;
9597;SDS011;4837;50.890;4.724;2023-07-30T05:37:24;14.15;;;3.05;;
9597;SDS011;4837;50.890;4.724;2023-07-30T05:39:51;13.48;;;2.72;;
9597;SDS011;4837;50.890;4.724;2023-07-30T05:42:17;14.52;;;3.25;;
9597;SDS011;4837;50.890;4.724;2023-07-30T05:44:43;12.48;;;2.67;;
9597;SDS011;4837;50.890;4.724;2023-07-30T05:47:09;11.20;;;3.20;;
9597;SDS011;4837;50.890;4.724;2023-07-30T05:49:35;12.52;;;3.00;;
9597;SDS011;4837;50.890;4.724;2023-07-30T05:52:01;12.68;;;2.85;;
9597;SDS011;4837;50.890;4.724;2023-07-30T05:54:28;12.63;;;3.42;;
9597;SDS011;4837;50.890;4.724;2023-07-30T05:56:54;11.32;;;2.60;;
9597;SDS011;4837;50.890;4.724;2023-07-30T05:59:20;8.70;;;2.55;;
9597;SDS011;4837;50.890;4.724;2023-07-30T06:01:46;9.68;;;2.70;;
9597;SDS011;4837;50.890;4.724;2023-07-30T06:04:12;12.98;;;3.33;;
9597;SDS011;4837;50.890;4.724;2023-07-30T06:06:38;12.85;;;2.63;;
9597;SDS011;4837;50.890;4.724;2023-07-30T06:09:05;9.88;;;2.85;;
9597;SDS011;4837;50.890;4.724;2023-07-30T06:11:31;10.63;;;2.75;;
9597;SDS011;4837;50.890;4.724;2023-07-30T06:13:57;11.90;;;3.53;;
9597;SDS011;4837;50.890;4.724;2023-07-30T06:16:23;11.30;;;3.10;;
9597;SDS011;4837;50.890;4.724;2023-07-30T06:18:49;12.07;;;2.88;;
9597;SDS011;4837;50.890;4.724;2023-07-30T06:21:15;9.15;;;2.75;;
9597;SDS011;4837;50.890;4.724;2023-07-30T06:23:41;14.32;;;3.08;;
9597;SDS011;4837;50.890;4.724;2023-07-30T06:26:07;12.32;;;3.00;;
9597;SDS011;4837;50.890;4.724;2023-07-30T06:28:34;10.18;;;2.50;;
9597;SDS011;4837;50.890;4.724;2023-07-30T06:31:03;12.65;;;2.83;;
9597;SDS011;4837;50.890;4.724;2023-07-30T06:33:29;13.43;;;3.15;;
9597;SDS011;4837;50.890;4.724;2023-07-30T06:35:56;11.52;;;2.72;;
9597;SDS011;4837;50.890;4.724;2023-07-30T06:38:22;13.35;;;2.85;;
9597;SDS011;4837;50.890;4.724;2023-07-30T06:40:48;10.98;;;3.22;;
9597;SDS011;4837;50.890;4.724;2023-07-30T06:43:14;13.80;;;3.25;;
9597;SDS011;4837;50.890;4.724;2023-07-30T06:45:40;12.68;;;3.13;;
9597;SDS011;4837;50.890;4.724;2023-07-30T06:48:06;13.27;;;2.80;;
9597;SDS011;4837;50.890;4.724;2023-07-30T06:50:32;13.48;;;3.03;;
9597;SDS011;4837;50.890;4.724;2023-07-30T06:52:58;6.68;;;2.33;;
9597;SDS011;4837;50.890;4.724;2023-07-30T06:55:24;14.90;;;3.45;;
9597;SDS011;4837;50.890;4.724;2023-07-30T06:57:51;16.42;;;2.70;;
9597;SDS011;4837;50.890;4.724;2023-07-30T07:00:17;15.85;;;3.15;;
9597;SDS011;4837;50.890;4.724;2023-07-30T07:02:47;12.75;;;2.90;;
9597;SDS011;4837;50.890;4.724;2023-07-30T07:05:13;10.00;;;3.03;;
9597;SDS011;4837;50.890;4.724;2023-07-30T07:07:40;14.55;;;3.30;;
9597;SDS011;4837;50.890;4.724;2023-07-30T07:10:06;14.73;;;3.03;;
9597;SDS011;4837;50.890;4.724;2023-07-30T07:12:32;12.15;;;2.60;;
9597;SDS011;4837;50.890;4.724;2023-07-30T07:14:58;9.45;;;2.67;;
9597;SDS011;4837;50.890;4.724;2023-07-30T07:17:26;11.43;;;2.90;;
9597;SDS011;4837;50.890;4.724;2023-07-30T07:19:53;13.07;;;3.33;;
9597;SDS011;4837;50.890;4.724;2023-07-30T07:22:19;11.35;;;2.90;;
9597;SDS011;4837;50.890;4.724;2023-07-30T07:24:45;9.82;;;2.65;;
9597;SDS011;4837;50.890;4.724;2023-07-30T07:27:11;12.07;;;2.38;;
9597;SDS011;4837;50.890;4.724;2023-07-30T07:29:37;12.13;;;3.10;;
9597;SDS011;4837;50.890;4.724;2023-07-30T07:32:04;10.18;;;2.90;;
9597;SDS011;4837;50.890;4.724;2023-07-30T07:34:30;7.93;;;2.63;;
9597;SDS011;4837;50.890;4.724;2023-07-30T07:36:56;13.02;;;3.55;;
9597;SDS011;4837;50.890;4.724;2023-07-30T07:39:23;12.63;;;3.22;;
9597;SDS011;4837;50.890;4.724;2023-07-30T07:41:49;8.88;;;2.58;;
9597;SDS011;4837;50.890;4.724;2023-07-30T07:44:15;9.65;;;2.42;;
9597;SDS011;4837;50.890;4.724;2023-07-30T07:46:41;9.77;;;2.60;;
9597;SDS011;4837;50.890;4.724;2023-07-30T07:49:08;11.68;;;2.47;;
9597;SDS011;4837;50.890;4.724;2023-07-30T07:51:35;8.95;;;2.45;;
9597;SDS011;4837;50.890;4.724;2023-07-30T07:54:01;8.27;;;2.33;;
9597;SDS011;4837;50.890;4.724;2023-07-30T07:56:27;7.45;;;2.03;;
9597;SDS011;4837;50.890;4.724;2023-07-30T07:58:53;5.32;;;1.80;;
9597;SDS011;4837;50.890;4.724;2023-07-30T08:01:19;9.73;;;2.38;;
9597;SDS011;4837;50.890;4.724;2023-07-30T08:03:45;6.85;;;2.20;;
9597;SDS011;4837;50.890;4.724;2023-07-30T08:06:11;7.22;;;2.13;;
9597;SDS011;4837;50.890;4.724;2023-07-30T08:08:37;7.85;;;2.30;;
9597;SDS011;4837;50.890;4.724;2023-07-30T08:11:07;7.82;;;2.40;;
9597;SDS011;4837;50.890;4.724;2023-07-30T08:13:34;8.93;;;2.45;;
9597;SDS011;4837;50.890;4.724;2023-07-30T08:16:00;10.00;;;2.63;;
9597;SDS011;4837;50.890;4.724;2023-07-30T08:18:27;5.75;;;1.80;;
9597;SDS011;4837;50.890;4.724;2023-07-30T08:20:53;6.47;;;2.35;;
9597;SDS011;4837;50.890;4.724;2023-07-30T08:23:19;7.65;;;2.30;;
9597;SDS011;4837;50.890;4.724;2023-07-30T08:25:45;5.25;;;1.67;;
9597;SDS011;4837;50.890;4.724;2023-07-30T08:28:11;6.18;;;2.00;;
9597;SDS011;4837;50.890;4.724;2023-07-30T08:30:38;8.77;;;2.38;;
9597;SDS011;4837;50.890;4.724;2023-07-30T08:33:04;8.55;;;2.15;;
9597;SDS011;4837;50.890;4.724;2023-07-30T08:35:30;8.18;;;2.28;;
9597;SDS011;4837;50.890;4.724;2023-07-30T08:37:56;9.52;;;2.13;;
9597;SDS011;4837;50.890;4.724;2023-07-30T08:40:22;8.32;;;2.15;;
9597;SDS011;4837;50.890;4.724;2023-07-30T08:42:50;5.25;;;2.13;;
9597;SDS011;4837;50.890;4.724;2023-07-30T08:45:16;8.60;;;2.40;;
9597;SDS011;4837;50.890;4.724;2023-07-30T08:47:43;8.88;;;2.17;;
9597;SDS011;4837;50.890;4.724;2023-07-30T08:50:10;6.78;;;2.17;;
9597;SDS011;4837;50.890;4.724;2023-07-30T08:52:36;7.85;;;2.08;;
9597;SDS011;4837;50.890;4.724;2023-07-30T08:55:02;6.75;;;2.15;;
9597;SDS011;4837;50.890;4.724;2023-07-30T08:57:29;7.18;;;2.00;;
9597;SDS011;4837;50.890;4.724;2023-07-30T09:00:02;5.35;;;2.38;;
9597;SDS011;4837;50.890;4.724;2023-07-30T09:05:04;6.05;;;2.42;;
9597;SDS011;4837;50.890;4.724;2023-07-30T09:07:31;6.82;;;2.33;;
9597;SDS011;4837;50.890;4.724;2023-07-30T09:09:57;8.32;;;2.17;;
9597;SDS011;4837;50.890;4.724;2023-07-30T09:12:34;7.10;;;1.92;;
9597;SDS011;4837;50.890;4.724;2023-07-30T09:15:04;8.43;;;2.42;;
9597;SDS011;4837;50.890;4.724;2023-07-30T09:17:30;10.40;;;2.40;;
9597;SDS011;4837;50.890;4.724;2023-07-30T09:19:58;11.02;;;2.60;;
9597;SDS011;4837;50.890;4.724;2023-07-30T09:22:25;5.38;;;1.95;;
9597;SDS011;4837;50.890;4.724;2023-07-30T09:24:55;9.00;;;3.13;;
9597;SDS011;4837;50.890;4.724;2023-07-30T09:27:25;6.65;;;2.40;;
9597;SDS011;4837;50.890;4.724;2023-07-30T09:29:52;8.88;;;2.25;;
9597;SDS011;4837;50.890;4.724;2023-07-30T09:32:18;6.78;;;2.17;;
9597;SDS011;4837;50.890;4.724;2023-07-30T09:34:45;6.25;;;2.00;;
9597;SDS011;4837;50.890;4.724;2023-07-30T09:37:11;4.43;;;1.65;;
9597;SDS011;4837;50.890;4.724;2023-07-30T09:39:37;4.97;;;1.63;;
9597;SDS011;4837;50.890;4.724;2023-07-30T09:42:04;6.10;;;2.10;;
9597;SDS011;4837;50.890;4.724;2023-07-30T09:44:33;5.78;;;1.80;;
9597;SDS011;4837;50.890;4.724;2023-07-30T09:47:00;6.88;;;2.38;;
9597;SDS011;4837;50.890;4.724;2023-07-30T09:49:30;7.50;;;2.20;;
9597;SDS011;4837;50.890;4.724;2023-07-30T09:51:57;6.93;;;2.33;;
9597;SDS011;4837;50.890;4.724;2023-07-30T09:54:23;5.00;;;1.95;;
9597;SDS011;4837;50.890;4.724;2023-07-30T09:56:49;5.18;;;2.05;;
9597;SDS011;4837;50.890;4.724;2023-07-30T09:59:16;4.18;;;1.80;;
9597;SDS011;4837;50.890;4.724;2023-07-30T10:01:43;7.03;;;1.83;;
9597;SDS011;4837;50.890;4.724;2023-07-30T10:04:10;4.40;;;1.33;;
9597;SDS011;4837;50.890;4.724;2023-07-30T10:06:41;3.88;;;1.80;;
9597;SDS011;4837;50.890;4.724;2023-07-30T10:09:08;5.50;;;1.75;;
9597;SDS011;4837;50.890;4.724;2023-07-30T10:11:36;3.42;;;1.60;;
9597;SDS011;4837;50.890;4.724;2023-07-30T10:14:03;8.52;;;2.15;;
9597;SDS011;4837;50.890;4.724;2023-07-30T10:16:29;6.03;;;1.70;;
9597;SDS011;4837;50.890;4.724;2023-07-30T10:18:56;5.32;;;1.95;;
9597;SDS011;4837;50.890;4.724;2023-07-30T10:21:23;9.43;;;2.20;;
9597;SDS011;4837;50.890;4.724;2023-07-30T10:23:57;8.48;;;2.25;;
9597;SDS011;4837;50.890;4.724;2023-07-30T10:26:33;6.55;;;1.80;;
9597;SDS011;4837;50.890;4.724;2023-07-30T10:29:14;7.88;;;2.20;;
9597;SDS011;4837;50.890;4.724;2023-07-30T10:31:41;4.57;;;2.13;;
9597;SDS011;4837;50.890;4.724;2023-07-30T10:34:08;7.55;;;2.40;;
9597;SDS011;4837;50.890;4.724;2023-07-30T10:39:10;7.28;;;2.45;;
9597;SDS011;4837;50.890;4.724;2023-07-30T10:41:37;7.45;;;2.50;;
9597;SDS011;4837;50.890;4.724;2023-07-30T10:44:03;7.00;;;2.00;;
9597;SDS011;4837;50.890;4.724;2023-07-30T10:46:29;8.35;;;2.42;;
9597;SDS011;4837;50.890;4.724;2023-07-30T10:48:55;5.88;;;2.00;;
9597;SDS011;4837;50.890;4.724;2023-07-30T10:51:21;6.32;;;2.20;;
9597;SDS011;4837;50.890;4.724;2023-07-30T10:53:49;8.20;;;2.47;;
9597;SDS011;4837;50.890;4.724;2023-07-30T10:56:17;6.95;;;1.88;;
9597;SDS011;4837;50.890;4.724;2023-07-30T10:58:43;7.05;;;2.17;;
9597;SDS011;4837;50.890;4.724;2023-07-30T11:01:10;8.80;;;2.22;;
9597;SDS011;4837;50.890;4.724;2023-07-30T11:03:36;6.53;;;1.50;;
9597;SDS011;4837;50.890;4.724;2023-07-30T11:06:05;5.15;;;1.80;;
9597;SDS011;4837;50.890;4.724;2023-07-30T11:08:40;4.95;;;1.70;;
9597;SDS011;4837;50.890;4.724;2023-07-30T11:11:06;8.52;;;2.10;;
9597;SDS011;4837;50.890;4.724;2023-07-30T11:13:36;5.63;;;1.88;;
9597;SDS011;4837;50.890;4.724;2023-07-30T11:16:07;4.57;;;1.73;;
9597;SDS011;4837;50.890;4.724;2023-07-30T11:18:33;4.82;;;1.77;;
9597;SDS011;4837;50.890;4.724;2023-07-30T11:23:29;4.28;;;1.70;;
9597;SDS011;4837;50.890;4.724;2023-07-30T11:25:55;7.45;;;2.05;;
9597;SDS011;4837;50.890;4.724;2023-07-30T11:28:28;7.68;;;2.15;;
9597;SDS011;4837;50.890;4.724;2023-07-30T11:33:40;4.07;;;1.55;;
9597;SDS011;4837;50.890;4.724;2023-07-30T11:36:11;5.65;;;2.33;;
9597;SDS011;4837;50.890;4.724;2023-07-30T11:38:38;5.75;;;2.38;;
9597;SDS011;4837;50.890;4.724;2023-07-30T11:41:05;8.55;;;1.90;;
9597;SDS011;4837;50.890;4.724;2023-07-30T11:43:35;8.75;;;2.20;;
9597;SDS011;4837;50.890;4.724;2023-07-30T11:48:34;4.82;;;1.80;;
9597;SDS011;4837;50.890;4.724;2023-07-30T11:51:01;8.90;;;1.80;;
9597;SDS011;4837;50.890;4.724;2023-07-30T11:53:43;7.53;;;1.70;;
9597;SDS011;4837;50.890;4.724;2023-07-30T11:56:26;5.97;;;1.83;;
9597;SDS011;4837;50.890;4.724;2023-07-30T11:59:00;4.40;;;1.60;;
9597;SDS011;4837;50.890;4.724;2023-07-30T12:01:31;6.43;;;1.70;;
9597;SDS011;4837;50.890;4.724;2023-07-30T12:03:59;3.47;;;1.40;;
9597;SDS011;4837;50.890;4.724;2023-07-30T12:06:38;3.60;;;1.60;;
9597;SDS011;4837;50.890;4.724;2023-07-30T12:09:18;5.85;;;1.65;;
9597;SDS011;4837;50.890;4.724;2023-07-30T12:11:52;3.35;;;1.40;;
9597;SDS011;4837;50.890;4.724;2023-07-30T12:14:18;4.25;;;1.48;;
9597;SDS011;4837;50.890;4.724;2023-07-30T12:16:45;6.15;;;1.70;;
9597;SDS011;4837;50.890;4.724;2023-07-30T12:19:11;4.75;;;1.70;;
9597;SDS011;4837;50.890;4.724;2023-07-30T12:21:37;4.30;;;1.77;;
9597;SDS011;4837;50.890;4.724;2023-07-30T12:24:03;4.13;;;1.63;;
9597;SDS011;4837;50.890;4.724;2023-07-30T12:26:30;2.47;;;1.30;;
9597;SDS011;4837;50.890;4.724;2023-07-30T12:28:56;5.13;;;1.40;;
9597;SDS011;4837;50.890;4.724;2023-07-30T12:31:22;4.13;;;1.40;;
9597;SDS011;4837;50.890;4.724;2023-07-30T12:33:48;3.65;;;1.23;;
9597;SDS011;4837;50.890;4.724;2023-07-30T12:36:14;4.03;;;1.52;;
9597;SDS011;4837;50.890;4.724;2023-07-30T12:38:40;4.57;;;1.45;;
9597;SDS011;4837;50.890;4.724;2023-07-30T12:41:07;3.90;;;1.45;;
9597;SDS011;4837;50.890;4.724;2023-07-30T12:43:33;6.40;;;1.42;;
9597;SDS011;4837;50.890;4.724;2023-07-30T12:45:59;5.22;;;1.45;;
9597;SDS011;4837;50.890;4.724;2023-07-30T12:48:25;3.63;;;1.42;;
9597;SDS011;4837;50.890;4.724;2023-07-30T12:50:51;4.22;;;1.60;;
9597;SDS011;4837;50.890;4.724;2023-07-30T12:53:17;6.85;;;1.70;;
9597;SDS011;4837;50.890;4.724;2023-07-30T12:55:43;3.17;;;1.67;;
9597;SDS011;4837;50.890;4.724;2023-07-30T12:58:10;3.85;;;1.50;;
9597;SDS011;4837;50.890;4.724;2023-07-30T13:00:36;5.07;;;1.60;;
9597;SDS011;4837;50.890;4.724;2023-07-30T13:03:02;5.70;;;1.80;;
9597;SDS011;4837;50.890;4.724;2023-07-30T13:05:28;5.35;;;1.60;;
9597;SDS011;4837;50.890;4.724;2023-07-30T13:07:54;4.43;;;1.30;;
9597;SDS011;4837;50.890;4.724;2023-07-30T13:10:20;6.35;;;1.75;;
9597;SDS011;4837;50.890;4.724;2023-07-30T13:12:47;7.80;;;2.17;;
9597;SDS011;4837;50.890;4.724;2023-07-30T13:15:13;4.15;;;1.77;;
9597;SDS011;4837;50.890;4.724;2023-07-30T13:17:39;5.07;;;1.70;;
9597;SDS011;4837;50.890;4.724;2023-07-30T13:20:05;4.10;;;2.00;;
9597;SDS011;4837;50.890;4.724;2023-07-30T13:22:32;5.63;;;1.85;;
9597;SDS011;4837;50.890;4.724;2023-07-30T13:24:58;5.45;;;1.45;;
9597;SDS011;4837;50.890;4.724;2023-07-30T13:27:24;4.72;;;1.52;;
9597;SDS011;4837;50.890;4.724;2023-07-30T13:29:50;4.97;;;1.63;;
9597;SDS011;4837;50.890;4.724;2023-07-30T13:32:16;2.80;;;1.58;;
9597;SDS011;4837;50.890;4.724;2023-07-30T13:34:43;4.93;;;1.60;;
9597;SDS011;4837;50.890;4.724;2023-07-30T13:37:09;4.25;;;1.60;;
9597;SDS011;4837;50.890;4.724;2023-07-30T13:39:35;6.35;;;1.88;;
9597;SDS011;4837;50.890;4.724;2023-07-30T13:42:01;3.05;;;1.45;;
9597;SDS011;4837;50.890;4.724;2023-07-30T13:44:27;4.38;;;1.50;;
9597;SDS011;4837;50.890;4.724;2023-07-30T13:46:53;5.22;;;1.40;;
9597;SDS011;4837;50.890;4.724;2023-07-30T13:49:19;3.95;;;1.70;;
9597;SDS011;4837;50.890;4.724;2023-07-30T13:51:46;2.95;;;1.45;;
9597;SDS011;4837;50.890;4.724;2023-07-30T13:54:12;5.15;;;2.22;;
9597;SDS011;4837;50.890;4.724;2023-07-30T13:56:38;3.55;;;1.70;;
9597;SDS011;4837;50.890;4.724;2023-07-30T13:59:04;3.72;;;1.58;;
9597;SDS011;4837;50.890;4.724;2023-07-30T14:01:30;5.03;;;1.70;;
9597;SDS011;4837;50.890;4.724;2023-07-30T14:03:56;4.50;;;1.88;;
9597;SDS011;4837;50.890;4.724;2023-07-30T14:06:23;4.32;;;2.00;;
9597;SDS011;4837;50.890;4.724;2023-07-30T14:08:49;5.22;;;1.85;;
9597;SDS011;4837;50.890;4.724;2023-07-30T14:11:15;3.53;;;1.70;;
9597;SDS011;4837;50.890;4.724;2023-07-30T14:13:41;2.63;;;1.88;;
9597;SDS011;4837;50.890;4.724;2023-07-30T14:16:07;5.80;;;1.52;;
9597;SDS011;4837;50.890;4.724;2023-07-30T14:18:34;3.90;;;1.58;;
9597;SDS011;4837;50.890;4.724;2023-07-30T14:21:00;4.22;;;1.95;;
9597;SDS011;4837;50.890;4.724;2023-07-30T14:23:27;5.05;;;1.90;;
9597;SDS011;4837;50.890;4.724;2023-07-30T14:25:54;5.35;;;1.92;;
9597;SDS011;4837;50.890;4.724;2023-07-30T14:28:20;5.68;;;1.90;;
9597;SDS011;4837;50.890;4.724;2023-07-30T14:30:46;3.50;;;1.65;;
9597;SDS011;4837;50.890;4.724;2023-07-30T14:33:12;5.25;;;2.10;;
9597;SDS011;4837;50.890;4.724;2023-07-30T14:35:38;5.65;;;1.90;;
9597;SDS011;4837;50.890;4.724;2023-07-30T14:38:05;4.47;;;2.47;;
9597;SDS011;4837;50.890;4.724;2023-07-30T14:40:31;4.88;;;1.90;;
9597;SDS011;4837;50.890;4.724;2023-07-30T14:42:58;7.10;;;2.05;;
9597;SDS011;4837;50.890;4.724;2023-07-30T14:45:24;4.40;;;1.73;;
9597;SDS011;4837;50.890;4.724;2023-07-30T14:47:50;5.25;;;1.98;;
9597;SDS011;4837;50.890;4.724;2023-07-30T14:50:17;3.25;;;1.60;;
9597;SDS011;4837;50.890;4.724;2023-07-30T14:52:43;3.47;;;1.58;;
9597;SDS011;4837;50.890;4.724;2023-07-30T14:55:09;4.82;;;2.00;;
9597;SDS011;4837;50.890;4.724;2023-07-30T14:57:35;6.30;;;1.95;;
9597;SDS011;4837;50.890;4.724;2023-07-30T15:00:01;3.92;;;1.77;;
9597;SDS011;4837;50.890;4.724;2023-07-30T15:02:28;4.53;;;2.20;;
9597;SDS011;4837;50.890;4.724;2023-07-30T15:04:54;4.32;;;1.88;;
9597;SDS011;4837;50.890;4.724;2023-07-30T15:07:21;5.95;;;2.03;;
9597;SDS011;4837;50.890;4.724;2023-07-30T15:09:51;4.45;;;2.00;;
9597;SDS011;4837;50.890;4.724;2023-07-30T15:12:17;4.88;;;2.20;;
9597;SDS011;4837;50.890;4.724;2023-07-30T15:14:44;3.30;;;1.90;;
9597;SDS011;4837;50.890;4.724;2023-07-30T15:17:10;4.38;;;1.85;;
9597;SDS011;4837;50.890;4.724;2023-07-30T15:19:36;3.92;;;1.80;;
9597;SDS011;4837;50.890;4.724;2023-07-30T15:22:02;4.57;;;2.10;;